sensor_id;sensor_type;location;lat;lon;timestamp;P1;P4;P2;P0;N10;N4;N25;N1;N05;TS
78462;SPS30;67756;51.982;5.648;2023-05-16T00:00:21;3.4;3.2;3.0;2.5;;;;2.0;38.0;
78462;SPS30;67756;51.982;5.648;2023-05-16T00:02:56;2.7;2.6;2.4;2.0;;;;2.0;40.0;
78462;SPS30;67756;51.982;5.648;2023-05-16T00:05:25;3.0;2.9;2.6;2.2;;;;2.0;43.0;
78462;SPS30;67756;51.982;5.648;2023-05-16T00:07:53;3.1;3.0;2.7;2.3;;;;2.0;43.0;
78462;SPS30;67756;51.982;5.648;2023-05-16T00:10:22;3.7;3.6;3.2;2.7;;;;2.0;44.0;
78462;SPS30;67756;51.982;5.648;2023-05-16T00:12:51;3.7;3.5;3.2;2.7;;;;2.0;46.0;
78462;SPS30;67756;51.982;5.648;2023-05-16T00:15:19;3.3;3.2;2.8;2.4;;;;2.0;52.0;
78462;SPS30;67756;51.982;5.648;2023-05-16T00:17:48;3.7;3.6;3.2;2.7;;;;2.0;58.0;
78462;SPS30;67756;51.982;5.648;2023-05-16T00:20:17;3.1;3.0;2.7;2.2;;;;2.0;61.0;
78462;SPS30;67756;51.982;5.648;2023-05-16T00:22:48;3.7;3.5;3.1;2.6;;;;2.0;66.0;
78462;SPS30;67756;51.982;5.648;2023-05-16T00:25:17;3.7;3.5;3.1;2.6;;;;2.0;71.0;
78462;SPS30;67756;51.982;5.648;2023-05-16T00:27:46;3.4;3.2;2.8;2.3;;;;2.0;74.0;
78462;SPS30;67756;51.982;5.648;2023-05-16T00:30:15;4.2;4.0;3.5;2.8;;;;2.0;76.0;
78462;SPS30;67756;51.982;5.648;2023-05-16T00:32:43;4.9;4.6;4.2;3.4;;;;2.0;86.0;
78462;SPS30;67756;51.982;5.648;2023-05-16T00:35:12;3.9;3.7;3.3;2.7;;;;2.0;93.0;
78462;SPS30;67756;51.982;5.648;2023-05-16T00:37:40;4.3;4.1;3.7;3.1;;;;2.0;95.0;
78462;SPS30;67756;51.982;5.648;2023-05-16T00:40:11;3.7;3.6;3.2;2.6;;;;2.0;96.0;
78462;SPS30;67756;51.982;5.648;2023-05-16T00:42:40;3.4;3.2;2.9;2.3;;;;2.0;96.0;
78462;SPS30;67756;51.982;5.648;2023-05-16T00:45:11;3.6;3.4;3.0;2.4;;;;1.0;103.0;
78462;SPS30;67756;51.982;5.648;2023-05-16T00:47:40;3.7;3.6;3.3;2.7;;;;1.0;111.0;
78462;SPS30;67756;51.982;5.648;2023-05-16T00:50:09;3.6;3.4;3.2;2.7;;;;1.0;110.0;
78462;SPS30;67756;51.982;5.648;2023-05-16T00:52:40;3.3;3.2;3.0;2.5;;;;1.0;117.0;
78462;SPS30;67756;51.982;5.648;2023-05-16T00:55:09;3.5;3.4;3.2;2.8;;;;1.0;118.0;
78462;SPS30;67756;51.982;5.648;2023-05-16T00:57:39;3.1;3.0;2.8;2.4;;;;1.0;120.0;
78462;SPS30;67756;51.982;5.648;2023-05-16T01:00:08;3.8;3.7;3.4;2.9;;;;1.0;122.0;
78462;SPS30;67756;51.982;5.648;2023-05-16T01:02:42;3.8;3.7;3.3;2.8;;;;1.0;124.0;
78462;SPS30;67756;51.982;5.648;2023-05-16T01:05:13;3.3;3.2;2.9;2.5;;;;1.0;127.0;
78462;SPS30;67756;51.982;5.648;2023-05-16T01:07:42;3.5;3.4;3.1;2.6;;;;1.0;127.0;
78462;SPS30;67756;51.982;5.648;2023-05-16T01:10:11;3.9;3.8;3.5;3.0;;;;1.0;128.0;
78462;SPS30;67756;51.982;5.648;2023-05-16T01:12:44;3.1;3.0;2.7;2.4;;;;1.0;129.0;
78462;SPS30;67756;51.982;5.648;2023-05-16T01:15:24;3.3;3.2;2.8;2.3;;;;1.0;129.0;
78462;SPS30;67756;51.982;5.648;2023-05-16T01:17:57;4.0;3.7;3.2;2.4;;;;1.0;126.0;
78462;SPS30;67756;51.982;5.648;2023-05-16T01:20:32;3.5;3.2;2.7;2.0;;;;1.0;124.0;
78462;SPS30;67756;51.982;5.648;2023-05-16T01:23:22;4.0;3.7;3.2;2.4;;;;1.0;120.0;
78462;SPS30;67756;51.982;5.648;2023-05-16T01:26:11;3.9;3.6;3.1;2.3;;;;1.0;117.0;
78462;SPS30;67756;51.982;5.648;2023-05-16T01:28:41;3.7;3.4;2.9;2.2;;;;1.0;118.0;
78462;SPS30;67756;51.982;5.648;2023-05-16T01:31:12;3.5;3.3;2.8;2.2;;;;1.0;116.0;
78462;SPS30;67756;51.982;5.648;2023-05-16T01:33:42;3.0;2.8;2.4;1.9;;;;1.0;109.0;
78462;SPS30;67756;51.982;5.648;2023-05-16T01:36:13;3.1;2.9;2.5;1.9;;;;1.0;103.0;
78462;SPS30;67756;51.982;5.648;2023-05-16T01:38:51;3.4;3.2;2.8;2.1;;;;1.0;92.0;
78462;SPS30;67756;51.982;5.648;2023-05-16T01:41:30;3.0;2.8;2.4;1.8;;;;1.0;81.0;
78462;SPS30;67756;51.982;5.648;2023-05-16T01:44:06;3.7;3.4;2.9;2.1;;;;1.0;83.0;
78462;SPS30;67756;51.982;5.648;2023-05-16T01:46:44;3.2;3.0;2.6;1.9;;;;1.0;84.0;
78462;SPS30;67756;51.982;5.648;2023-05-16T01:49:19;3.4;3.1;2.6;1.9;;;;1.0;79.0;
78462;SPS30;67756;51.982;5.648;2023-05-16T01:51:55;2.8;2.6;2.2;1.7;;;;1.0;81.0;
78462;SPS30;67756;51.982;5.648;2023-05-16T01:54:30;3.3;3.1;2.6;2.0;;;;1.0;82.0;
78462;SPS30;67756;51.982;5.648;2023-05-16T01:57:00;3.4;3.2;2.7;2.0;;;;1.0;84.0;
78462;SPS30;67756;51.982;5.648;2023-05-16T01:59:33;3.6;3.3;2.8;2.1;;;;1.0;92.0;
78462;SPS30;67756;51.982;5.648;2023-05-16T02:02:03;3.2;3.0;2.5;1.9;;;;1.0;106.0;
78462;SPS30;67756;51.982;5.648;2023-05-16T02:04:32;3.5;3.2;2.7;2.0;;;;1.0;111.0;
78462;SPS30;67756;51.982;5.648;2023-05-16T02:07:01;4.0;3.7;3.1;2.2;;;;1.0;117.0;
78462;SPS30;67756;51.982;5.648;2023-05-16T02:09:30;3.2;2.9;2.5;1.8;;;;1.0;126.0;
78462;SPS30;67756;51.982;5.648;2023-05-16T02:11:59;3.1;2.9;2.4;1.7;;;;1.0;122.0;
78462;SPS30;67756;51.982;5.648;2023-05-16T02:14:28;3.7;3.5;2.9;2.1;;;;1.0;121.0;
78462;SPS30;67756;51.982;5.648;2023-05-16T02:16:56;3.7;3.4;2.8;2.0;;;;1.0;127.0;
78462;SPS30;67756;51.982;5.648;2023-05-16T02:19:25;4.1;3.8;3.2;2.4;;;;1.0;126.0;
78462;SPS30;67756;51.982;5.648;2023-05-16T02:21:54;3.6;3.4;2.9;2.3;;;;1.0;125.0;
78462;SPS30;67756;51.982;5.648;2023-05-16T02:24:22;3.1;2.9;2.4;1.8;;;;1.0;126.0;
78462;SPS30;67756;51.982;5.648;2023-05-16T02:26:51;3.8;3.5;3.0;2.2;;;;1.0;129.0;
78462;SPS30;67756;51.982;5.648;2023-05-16T02:29:19;3.1;2.8;2.4;1.8;;;;1.0;126.0;
78462;SPS30;67756;51.982;5.648;2023-05-16T02:31:48;3.3;3.1;2.6;1.9;;;;1.0;119.0;
78462;SPS30;67756;51.982;5.648;2023-05-16T02:34:16;3.1;2.9;2.5;1.9;;;;1.0;112.0;
78462;SPS30;67756;51.982;5.648;2023-05-16T02:36:45;3.8;3.5;2.9;2.1;;;;1.0;114.0;
78462;SPS30;67756;51.982;5.648;2023-05-16T02:39:13;4.0;3.7;3.1;2.2;;;;1.0;114.0;
78462;SPS30;67756;51.982;5.648;2023-05-16T02:41:41;3.2;3.0;2.5;1.8;;;;1.0;114.0;
78462;SPS30;67756;51.982;5.648;2023-05-16T02:44:10;3.8;3.5;2.9;2.1;;;;1.0;114.0;
78462;SPS30;67756;51.982;5.648;2023-05-16T02:46:38;3.1;2.9;2.3;1.6;;;;1.0;110.0;
78462;SPS30;67756;51.982;5.648;2023-05-16T02:49:07;4.0;3.7;2.9;1.9;;;;1.0;103.0;
78462;SPS30;67756;51.982;5.648;2023-05-16T02:51:35;3.8;3.4;2.7;1.8;;;;1.0;93.0;
78462;SPS30;67756;51.982;5.648;2023-05-16T02:54:04;4.0;3.7;2.9;2.0;;;;1.0;88.0;
78462;SPS30;67756;51.982;5.648;2023-05-16T02:56:34;3.9;3.6;2.9;2.0;;;;1.0;84.0;
78462;SPS30;67756;51.982;5.648;2023-05-16T02:59:04;3.6;3.3;2.8;2.0;;;;1.0;78.0;
78462;SPS30;67756;51.982;5.648;2023-05-16T03:01:34;3.1;2.9;2.4;1.7;;;;1.0;77.0;
78462;SPS30;67756;51.982;5.648;2023-05-16T03:04:02;3.9;3.6;3.0;2.1;;;;1.0;77.0;
78462;SPS30;67756;51.982;5.648;2023-05-16T03:06:31;4.2;3.8;3.1;2.1;;;;1.0;78.0;
78462;SPS30;67756;51.982;5.648;2023-05-16T03:08:59;3.8;3.5;2.8;1.9;;;;2.0;77.0;
78462;SPS30;67756;51.982;5.648;2023-05-16T03:11:28;4.3;3.9;3.2;2.1;;;;2.0;76.0;
78462;SPS30;67756;51.982;5.648;2023-05-16T03:13:57;4.2;3.8;3.1;2.1;;;;2.0;77.0;
78462;SPS30;67756;51.982;5.648;2023-05-16T03:16:26;4.3;3.9;3.2;2.2;;;;2.0;80.0;
78462;SPS30;67756;51.982;5.648;2023-05-16T03:18:54;3.6;3.3;2.7;1.8;;;;2.0;82.0;
78462;SPS30;67756;51.982;5.648;2023-05-16T03:21:23;3.0;2.7;2.3;1.6;;;;2.0;83.0;
78462;SPS30;67756;51.982;5.648;2023-05-16T03:23:52;4.0;3.7;3.0;2.1;;;;2.0;81.0;
78462;SPS30;67756;51.982;5.648;2023-05-16T03:26:22;4.3;4.0;3.2;2.1;;;;2.0;73.0;
78462;SPS30;67756;51.982;5.648;2023-05-16T03:28:50;4.2;3.8;3.2;2.2;;;;2.0;68.0;
78462;SPS30;67756;51.982;5.648;2023-05-16T03:31:20;4.4;4.1;3.4;2.5;;;;2.0;64.0;
78462;SPS30;67756;51.982;5.648;2023-05-16T03:33:50;3.8;3.6;3.1;2.3;;;;2.0;61.0;
78462;SPS30;67756;51.982;5.648;2023-05-16T03:36:19;3.7;3.5;3.1;2.4;;;;2.0;59.0;
78462;SPS30;67756;51.982;5.648;2023-05-16T03:38:49;3.6;3.4;3.0;2.3;;;;2.0;58.0;
78462;SPS30;67756;51.982;5.648;2023-05-16T03:41:17;4.2;4.0;3.5;2.7;;;;2.0;61.0;
78462;SPS30;67756;51.982;5.648;2023-05-16T03:43:46;3.7;3.5;3.0;2.2;;;;2.0;63.0;
78462;SPS30;67756;51.982;5.648;2023-05-16T03:46:14;3.1;2.9;2.5;2.0;;;;2.0;61.0;
78462;SPS30;67756;51.982;5.648;2023-05-16T03:48:44;3.8;3.6;3.1;2.3;;;;2.0;60.0;
78462;SPS30;67756;51.982;5.648;2023-05-16T03:51:12;3.8;3.5;3.0;2.3;;;;2.0;61.0;
78462;SPS30;67756;51.982;5.648;2023-05-16T03:53:41;3.7;3.4;2.9;2.2;;;;2.0;62.0;
78462;SPS30;67756;51.982;5.648;2023-05-16T03:56:09;3.5;3.3;2.8;2.0;;;;2.0;58.0;
78462;SPS30;67756;51.982;5.648;2023-05-16T03:58:38;3.3;3.1;2.6;1.9;;;;2.0;56.0;
78462;SPS30;67756;51.982;5.648;2023-05-16T04:01:06;3.4;3.1;2.6;1.9;;;;2.0;58.0;
78462;SPS30;67756;51.982;5.648;2023-05-16T04:03:35;3.3;3.1;2.6;1.9;;;;2.0;60.0;
78462;SPS30;67756;51.982;5.648;2023-05-16T04:06:04;3.7;3.4;2.8;2.0;;;;2.0;61.0;
78462;SPS30;67756;51.982;5.648;2023-05-16T04:08:33;4.1;3.8;3.2;2.3;;;;2.0;60.0;
78462;SPS30;67756;51.982;5.648;2023-05-16T04:11:04;4.2;3.8;3.2;2.3;;;;2.0;51.0;
78462;SPS30;67756;51.982;5.648;2023-05-16T04:13:33;4.2;3.9;3.3;2.4;;;;2.0;48.0;
78462;SPS30;67756;51.982;5.648;2023-05-16T04:16:01;3.8;3.5;3.1;2.4;;;;2.0;47.0;
78462;SPS30;67756;51.982;5.648;2023-05-16T04:18:30;3.0;2.8;2.4;1.8;;;;2.0;46.0;
78462;SPS30;67756;51.982;5.648;2023-05-16T04:20:58;3.3;3.1;2.7;2.0;;;;2.0;47.0;
78462;SPS30;67756;51.982;5.648;2023-05-16T04:23:28;3.7;3.5;3.0;2.3;;;;2.0;47.0;
78462;SPS30;67756;51.982;5.648;2023-05-16T04:25:56;4.1;3.8;3.2;2.3;;;;3.0;49.0;
78462;SPS30;67756;51.982;5.648;2023-05-16T04:28:27;3.8;3.6;3.0;2.2;;;;3.0;49.0;
78462;SPS30;67756;51.982;5.648;2023-05-16T04:30:55;3.7;3.5;2.9;2.1;;;;3.0;49.0;
78462;SPS30;67756;51.982;5.648;2023-05-16T04:33:23;3.1;2.9;2.4;1.8;;;;3.0;49.0;
78462;SPS30;67756;51.982;5.648;2023-05-16T04:35:52;4.0;3.8;3.1;2.2;;;;3.0;50.0;
78462;SPS30;67756;51.982;5.648;2023-05-16T04:38:23;2.8;2.6;2.2;1.6;;;;3.0;53.0;
78462;SPS30;67756;51.982;5.648;2023-05-16T04:40:52;3.2;3.0;2.6;2.0;;;;3.0;55.0;
78462;SPS30;67756;51.982;5.648;2023-05-16T04:43:22;4.0;3.8;3.2;2.5;;;;3.0;54.0;
78462;SPS30;67756;51.982;5.648;2023-05-16T04:45:51;3.8;3.6;3.1;2.5;;;;3.0;53.0;
78462;SPS30;67756;51.982;5.648;2023-05-16T04:48:21;3.6;3.5;3.1;2.6;;;;3.0;53.0;
78462;SPS30;67756;51.982;5.648;2023-05-16T04:50:49;3.6;3.4;3.1;2.6;;;;3.0;55.0;
78462;SPS30;67756;51.982;5.648;2023-05-16T04:53:28;3.7;3.6;3.3;2.7;;;;3.0;61.0;
78462;SPS30;67756;51.982;5.648;2023-05-16T04:55:56;3.6;3.5;3.1;2.6;;;;3.0;74.0;
78462;SPS30;67756;51.982;5.648;2023-05-16T04:58:25;3.7;3.5;3.2;2.7;;;;3.0;79.0;
78462;SPS30;67756;51.982;5.648;2023-05-16T05:00:54;3.3;3.2;2.8;2.3;;;;3.0;85.0;
78462;SPS30;67756;51.982;5.648;2023-05-16T05:03:22;3.8;3.7;3.3;2.7;;;;3.0;93.0;
78462;SPS30;67756;51.982;5.648;2023-05-16T05:05:51;3.0;2.9;2.6;2.1;;;;3.0;98.0;
78462;SPS30;67756;51.982;5.648;2023-05-16T05:08:19;3.5;3.4;3.0;2.5;;;;3.0;94.0;
78462;SPS30;67756;51.982;5.648;2023-05-16T05:10:48;3.6;3.4;3.0;2.4;;;;3.0;82.0;
78462;SPS30;67756;51.982;5.648;2023-05-16T05:13:17;3.5;3.3;2.8;2.2;;;;3.0;68.0;
78462;SPS30;67756;51.982;5.648;2023-05-16T05:15:47;4.1;3.9;3.4;2.6;;;;3.0;69.0;
78462;SPS30;67756;51.982;5.648;2023-05-16T05:18:17;3.8;3.6;3.2;2.5;;;;3.0;66.0;
78462;SPS30;67756;51.982;5.648;2023-05-16T05:20:46;3.2;3.0;2.7;2.1;;;;3.0;53.0;
78462;SPS30;67756;51.982;5.648;2023-05-16T05:23:14;3.2;3.0;2.7;2.2;;;;3.0;49.0;
78462;SPS30;67756;51.982;5.648;2023-05-16T05:25:43;3.2;3.0;2.6;2.0;;;;3.0;53.0;
78462;SPS30;67756;51.982;5.648;2023-05-16T05:28:12;3.2;3.0;2.6;2.0;;;;3.0;47.0;
78462;SPS30;67756;51.982;5.648;2023-05-16T05:30:41;3.5;3.3;2.8;2.2;;;;3.0;36.0;
78462;SPS30;67756;51.982;5.648;2023-05-16T05:33:12;3.2;3.0;2.5;1.8;;;;3.0;40.0;
78462;SPS30;67756;51.982;5.648;2023-05-16T05:35:44;3.0;2.8;2.3;1.6;;;;3.0;37.0;
78462;SPS30;67756;51.982;5.648;2023-05-16T05:38:13;3.3;3.1;2.5;1.8;;;;3.0;36.0;
78462;SPS30;67756;51.982;5.648;2023-05-16T05:40:41;3.5;3.3;2.7;1.9;;;;3.0;38.0;
78462;SPS30;67756;51.982;5.648;2023-05-16T05:43:09;3.2;3.0;2.5;1.8;;;;3.0;39.0;
78462;SPS30;67756;51.982;5.648;2023-05-16T05:45:38;3.7;3.4;2.8;2.0;;;;3.0;39.0;
78462;SPS30;67756;51.982;5.648;2023-05-16T05:48:08;3.2;2.9;2.4;1.7;;;;3.0;38.0;
78462;SPS30;67756;51.982;5.648;2023-05-16T05:50:38;3.2;3.0;2.5;1.8;;;;3.0;36.0;
78462;SPS30;67756;51.982;5.648;2023-05-16T05:53:07;3.0;2.8;2.3;1.7;;;;3.0;38.0;
78462;SPS30;67756;51.982;5.648;2023-05-16T05:55:37;3.7;3.4;2.8;2.0;;;;3.0;41.0;
78462;SPS30;67756;51.982;5.648;2023-05-16T05:58:06;3.6;3.4;2.8;1.9;;;;3.0;45.0;
78462;SPS30;67756;51.982;5.648;2023-05-16T06:00:35;3.9;3.5;2.9;2.0;;;;3.0;46.0;
78462;SPS30;67756;51.982;5.648;2023-05-16T06:03:03;4.1;3.8;3.1;2.1;;;;3.0;48.0;
78462;SPS30;67756;51.982;5.648;2023-05-16T06:05:32;3.1;2.8;2.3;1.6;;;;3.0;49.0;
78462;SPS30;67756;51.982;5.648;2023-05-16T06:08:01;2.9;2.7;2.3;1.7;;;;3.0;51.0;
78462;SPS30;67756;51.982;5.648;2023-05-16T06:10:29;3.1;2.9;2.4;1.8;;;;3.0;50.0;
78462;SPS30;67756;51.982;5.648;2023-05-16T06:12:58;2.9;2.7;2.3;1.7;;;;3.0;49.0;
78462;SPS30;67756;51.982;5.648;2023-05-16T06:15:26;4.0;3.7;3.1;2.3;;;;3.0;49.0;
78462;SPS30;67756;51.982;5.648;2023-05-16T06:17:55;3.0;2.8;2.3;1.7;;;;3.0;49.0;
78462;SPS30;67756;51.982;5.648;2023-05-16T06:20:24;4.1;3.8;3.1;2.2;;;;3.0;48.0;
78462;SPS30;67756;51.982;5.648;2023-05-16T06:22:53;3.1;2.9;2.3;1.6;;;;3.0;39.0;
78462;SPS30;67756;51.982;5.648;2023-05-16T06:25:21;3.3;3.0;2.5;1.7;;;;3.0;39.0;
78462;SPS30;67756;51.982;5.648;2023-05-16T06:27:50;3.6;3.3;2.6;1.8;;;;3.0;39.0;
78462;SPS30;67756;51.982;5.648;2023-05-16T06:30:19;3.1;2.8;2.3;1.6;;;;3.0;40.0;
78462;SPS30;67756;51.982;5.648;2023-05-16T06:32:47;3.7;3.4;2.8;1.9;;;;3.0;40.0;
78462;SPS30;67756;51.982;5.648;2023-05-16T06:35:16;3.4;3.1;2.5;1.6;;;;3.0;40.0;
78462;SPS30;67756;51.982;5.648;2023-05-16T06:37:45;3.8;3.4;2.7;1.8;;;;3.0;39.0;
78462;SPS30;67756;51.982;5.648;2023-05-16T06:40:14;3.9;3.5;2.8;1.9;;;;3.0;40.0;
78462;SPS30;67756;51.982;5.648;2023-05-16T06:42:43;2.7;2.5;2.0;1.4;;;;3.0;39.0;
78462;SPS30;67756;51.982;5.648;2023-05-16T06:45:11;3.1;2.9;2.3;1.6;;;;3.0;37.0;
78462;SPS30;67756;51.982;5.648;2023-05-16T06:47:40;2.7;2.5;2.0;1.4;;;;3.0;37.0;
78462;SPS30;67756;51.982;5.648;2023-05-16T06:50:09;2.5;2.3;1.9;1.3;;;;3.0;39.0;
78462;SPS30;67756;51.982;5.648;2023-05-16T06:52:38;2.7;2.5;2.0;1.3;;;;3.0;39.0;
78462;SPS30;67756;51.982;5.648;2023-05-16T06:55:07;3.5;3.2;2.5;1.7;;;;3.0;27.0;
78462;SPS30;67756;51.982;5.648;2023-05-16T06:57:37;3.4;3.1;2.4;1.5;;;;3.0;23.0;
78462;SPS30;67756;51.982;5.648;2023-05-16T07:00:07;2.8;2.6;2.0;1.3;;;;3.0;23.0;
78462;SPS30;67756;51.982;5.648;2023-05-16T07:02:35;2.7;2.4;1.9;1.2;;;;3.0;22.0;
78462;SPS30;67756;51.982;5.648;2023-05-16T07:05:05;2.7;2.5;1.9;1.2;;;;3.0;21.0;
78462;SPS30;67756;51.982;5.648;2023-05-16T07:07:34;3.7;3.3;2.6;1.6;;;;3.0;21.0;
78462;SPS30;67756;51.982;5.648;2023-05-16T07:10:02;2.8;2.5;2.0;1.3;;;;3.0;22.0;
78462;SPS30;67756;51.982;5.648;2023-05-16T07:12:31;2.3;2.1;1.7;1.1;;;;3.0;21.0;
78462;SPS30;67756;51.982;5.648;2023-05-16T07:15:00;2.0;1.8;1.5;1.0;;;;3.0;20.0;
78462;SPS30;67756;51.982;5.648;2023-05-16T07:17:29;2.7;2.4;1.9;1.3;;;;3.0;21.0;
78462;SPS30;67756;51.982;5.648;2023-05-16T07:19:58;2.3;2.1;1.7;1.1;;;;3.0;20.0;
78462;SPS30;67756;51.982;5.648;2023-05-16T07:22:29;2.5;2.3;1.8;1.2;;;;3.0;19.0;
78462;SPS30;67756;51.982;5.648;2023-05-16T07:24:57;2.1;1.9;1.5;1.0;;;;3.0;21.0;
78462;SPS30;67756;51.982;5.648;2023-05-16T07:27:27;2.4;2.2;1.8;1.2;;;;3.0;22.0;
78462;SPS30;67756;51.982;5.648;2023-05-16T07:29:57;2.1;1.9;1.5;1.0;;;;2.0;22.0;
78462;SPS30;67756;51.982;5.648;2023-05-16T07:32:25;1.8;1.6;1.3;0.9;;;;2.0;26.0;
78462;SPS30;67756;51.982;5.648;2023-05-16T07:34:54;2.6;2.3;1.9;1.2;;;;2.0;24.0;
78462;SPS30;67756;51.982;5.648;2023-05-16T07:37:22;2.0;1.8;1.4;0.9;;;;2.0;20.0;
78462;SPS30;67756;51.982;5.648;2023-05-16T07:39:51;2.0;1.8;1.5;1.0;;;;2.0;20.0;
78462;SPS30;67756;51.982;5.648;2023-05-16T07:42:19;2.3;2.1;1.7;1.1;;;;2.0;21.0;
78462;SPS30;67756;51.982;5.648;2023-05-16T07:44:48;2.0;1.9;1.5;1.0;;;;2.0;30.0;
78462;SPS30;67756;51.982;5.648;2023-05-16T07:47:16;1.8;1.7;1.4;1.0;;;;2.0;30.0;
78462;SPS30;67756;51.982;5.648;2023-05-16T07:49:44;1.9;1.7;1.4;1.0;;;;2.0;26.0;
78462;SPS30;67756;51.982;5.648;2023-05-16T07:52:13;1.7;1.6;1.4;1.0;;;;2.0;23.0;
78462;SPS30;67756;51.982;5.648;2023-05-16T07:54:41;1.6;1.5;1.3;0.9;;;;2.0;24.0;
78462;SPS30;67756;51.982;5.648;2023-05-16T07:57:12;1.5;1.4;1.2;0.8;;;;2.0;43.0;
78462;SPS30;67756;51.982;5.648;2023-05-16T07:59:43;1.7;1.6;1.3;1.0;;;;2.0;38.0;
78462;SPS30;67756;51.982;5.648;2023-05-16T08:02:12;1.7;1.6;1.3;1.0;;;;2.0;33.0;
78462;SPS30;67756;51.982;5.648;2023-05-16T08:04:41;1.2;1.1;0.9;0.7;;;;2.0;30.0;
78462;SPS30;67756;51.982;5.648;2023-05-16T08:07:10;1.8;1.7;1.4;1.1;;;;2.0;29.0;
78462;SPS30;67756;51.982;5.648;2023-05-16T08:09:39;1.6;1.5;1.2;0.9;;;;2.0;27.0;
78462;SPS30;67756;51.982;5.648;2023-05-16T08:12:08;2.0;1.9;1.6;1.1;;;;2.0;27.0;
78462;SPS30;67756;51.982;5.648;2023-05-16T08:14:36;1.4;1.3;1.1;0.8;;;;2.0;27.0;
78462;SPS30;67756;51.982;5.648;2023-05-16T08:17:05;1.3;1.2;1.0;0.7;;;;2.0;27.0;
78462;SPS30;67756;51.982;5.648;2023-05-16T08:19:34;2.2;2.1;1.7;1.2;;;;2.0;32.0;
78462;SPS30;67756;51.982;5.648;2023-05-16T08:22:05;1.7;1.6;1.3;0.9;;;;2.0;32.0;
78462;SPS30;67756;51.982;5.648;2023-05-16T08:24:34;1.2;1.1;0.9;0.6;;;;2.0;32.0;
78462;SPS30;67756;51.982;5.648;2023-05-16T08:27:02;1.6;1.5;1.2;0.9;;;;2.0;37.0;
78462;SPS30;67756;51.982;5.648;2023-05-16T08:29:31;1.5;1.4;1.1;0.8;;;;2.0;39.0;
78462;SPS30;67756;51.982;5.648;2023-05-16T08:32:00;1.0;1.0;0.8;0.6;;;;2.0;36.0;
78462;SPS30;67756;51.982;5.648;2023-05-16T08:34:29;1.7;1.6;1.4;1.0;;;;2.0;33.0;
78462;SPS30;67756;51.982;5.648;2023-05-16T08:36:58;1.4;1.3;1.1;0.8;;;;1.0;34.0;
78462;SPS30;67756;51.982;5.648;2023-05-16T08:39:29;2.0;1.8;1.6;1.2;;;;1.0;35.0;
78462;SPS30;67756;51.982;5.648;2023-05-16T08:41:59;1.2;1.1;1.0;0.8;;;;2.0;48.0;
78462;SPS30;67756;51.982;5.648;2023-05-16T08:44:30;1.1;1.0;0.9;0.7;;;;2.0;51.0;
78462;SPS30;67756;51.982;5.648;2023-05-16T08:47:04;1.1;1.0;0.9;0.7;;;;2.0;52.0;
78462;SPS30;67756;51.982;5.648;2023-05-16T08:49:39;0.9;0.8;0.7;0.5;;;;2.0;57.0;
78462;SPS30;67756;51.982;5.648;2023-05-16T08:52:09;1.0;0.9;0.8;0.6;;;;2.0;54.0;
78462;SPS30;67756;51.982;5.648;2023-05-16T08:54:38;1.0;0.9;0.8;0.6;;;;2.0;54.0;
78462;SPS30;67756;51.982;5.648;2023-05-16T08:57:08;1.2;1.1;0.9;0.7;;;;2.0;54.0;
78462;SPS30;67756;51.982;5.648;2023-05-16T08:59:40;1.4;1.3;1.1;0.8;;;;2.0;102.0;
78462;SPS30;67756;51.982;5.648;2023-05-16T09:02:09;1.2;1.1;1.0;0.7;;;;2.0;80.0;
78462;SPS30;67756;51.982;5.648;2023-05-16T09:04:39;1.3;1.2;1.0;0.8;;;;2.0;73.0;
78462;SPS30;67756;51.982;5.648;2023-05-16T09:07:08;1.5;1.4;1.2;0.9;;;;1.0;65.0;
78462;SPS30;67756;51.982;5.648;2023-05-16T09:09:36;2.0;1.8;1.5;1.1;;;;1.0;54.0;
78462;SPS30;67756;51.982;5.648;2023-05-16T09:12:06;1.8;1.7;1.4;1.0;;;;1.0;53.0;
78462;SPS30;67756;51.982;5.648;2023-05-16T09:14:36;1.8;1.6;1.4;1.0;;;;1.0;52.0;
78462;SPS30;67756;51.982;5.648;2023-05-16T09:17:06;1.8;1.7;1.4;1.1;;;;1.0;53.0;
78462;SPS30;67756;51.982;5.648;2023-05-16T09:19:40;1.4;1.3;1.1;0.8;;;;1.0;55.0;
78462;SPS30;67756;51.982;5.648;2023-05-16T09:22:10;1.8;1.6;1.4;1.1;;;;1.0;56.0;
78462;SPS30;67756;51.982;5.648;2023-05-16T09:24:41;1.6;1.5;1.3;0.9;;;;1.0;58.0;
78462;SPS30;67756;51.982;5.648;2023-05-16T09:27:11;2.4;2.2;1.9;1.4;;;;1.0;74.0;
78462;SPS30;67756;51.982;5.648;2023-05-16T09:29:42;1.9;1.8;1.6;1.2;;;;1.0;99.0;
78462;SPS30;67756;51.982;5.648;2023-05-16T09:32:13;1.3;1.2;1.0;0.8;;;;1.0;92.0;
78462;SPS30;67756;51.982;5.648;2023-05-16T09:34:44;1.8;1.6;1.4;1.1;;;;1.0;98.0;
78462;SPS30;67756;51.982;5.648;2023-05-16T09:37:14;1.6;1.5;1.3;1.0;;;;1.0;100.0;
78462;SPS30;67756;51.982;5.648;2023-05-16T09:39:46;2.1;2.0;1.7;1.3;;;;1.0;101.0;
78462;SPS30;67756;51.982;5.648;2023-05-16T09:42:17;1.9;1.8;1.5;1.1;;;;1.0;113.0;
78462;SPS30;67756;51.982;5.648;2023-05-16T09:44:47;1.9;1.8;1.5;1.1;;;;1.0;110.0;
78462;SPS30;67756;51.982;5.648;2023-05-16T09:47:17;1.9;1.7;1.5;1.1;;;;1.0;111.0;
78462;SPS30;67756;51.982;5.648;2023-05-16T09:49:50;1.9;1.8;1.5;1.1;;;;1.0;99.0;
78462;SPS30;67756;51.982;5.648;2023-05-16T09:52:20;1.6;1.5;1.3;0.9;;;;1.0;89.0;
78462;SPS30;67756;51.982;5.648;2023-05-16T09:54:49;2.0;1.8;1.5;1.1;;;;1.0;88.0;
78462;SPS30;67756;51.982;5.648;2023-05-16T09:57:20;2.1;1.9;1.6;1.1;;;;1.0;88.0;
78462;SPS30;67756;51.982;5.648;2023-05-16T09:59:52;1.6;1.5;1.2;0.9;;;;1.0;83.0;
78462;SPS30;67756;51.982;5.648;2023-05-16T10:02:20;1.5;1.4;1.1;0.8;;;;1.0;77.0;
78462;SPS30;67756;51.982;5.648;2023-05-16T10:04:49;1.7;1.6;1.3;0.9;;;;1.0;79.0;
78462;SPS30;67756;51.982;5.648;2023-05-16T10:07:18;2.2;2.0;1.7;1.2;;;;1.0;80.0;
78462;SPS30;67756;51.982;5.648;2023-05-16T10:09:49;1.6;1.5;1.2;0.9;;;;1.0;81.0;
78462;SPS30;67756;51.982;5.648;2023-05-16T10:12:19;1.8;1.7;1.4;1.0;;;;1.0;81.0;
78462;SPS30;67756;51.982;5.648;2023-05-16T10:14:57;1.3;1.2;1.0;0.7;;;;1.0;75.0;
78462;SPS30;67756;51.982;5.648;2023-05-16T10:17:32;1.3;1.2;1.0;0.7;;;;1.0;80.0;
78462;SPS30;67756;51.982;5.648;2023-05-16T10:20:04;1.7;1.6;1.3;0.9;;;;1.0;97.0;
78462;SPS30;67756;51.982;5.648;2023-05-16T10:22:35;1.5;1.4;1.1;0.8;;;;1.0;110.0;
78462;SPS30;67756;51.982;5.648;2023-05-16T10:25:12;2.0;1.8;1.5;1.0;;;;1.0;104.0;
78462;SPS30;67756;51.982;5.648;2023-05-16T10:27:49;1.7;1.6;1.3;0.8;;;;1.0;102.0;
78462;SPS30;67756;51.982;5.648;2023-05-16T10:30:19;1.9;1.7;1.4;0.9;;;;1.0;101.0;
78462;SPS30;67756;51.982;5.648;2023-05-16T10:32:48;1.7;1.6;1.3;0.9;;;;1.0;102.0;
78462;SPS30;67756;51.982;5.648;2023-05-16T10:35:18;1.5;1.4;1.1;0.8;;;;1.0;117.0;
78462;SPS30;67756;51.982;5.648;2023-05-16T10:37:48;1.5;1.3;1.1;0.7;;;;1.0;120.0;
78462;SPS30;67756;51.982;5.648;2023-05-16T10:40:18;1.6;1.5;1.2;0.8;;;;1.0;131.0;
78462;SPS30;67756;51.982;5.648;2023-05-16T10:42:55;1.8;1.7;1.4;1.0;;;;1.0;148.0;
78462;SPS30;67756;51.982;5.648;2023-05-16T10:45:25;1.9;1.8;1.5;1.0;;;;1.0;160.0;
78462;SPS30;67756;51.982;5.648;2023-05-16T10:47:55;1.2;1.1;0.9;0.7;;;;1.0;162.0;
78462;SPS30;67756;51.982;5.648;2023-05-16T10:50:32;1.7;1.5;1.3;0.9;;;;1.0;173.0;
78462;SPS30;67756;51.982;5.648;2023-05-16T10:53:14;1.7;1.6;1.3;0.9;;;;1.0;160.0;
78462;SPS30;67756;51.982;5.648;2023-05-16T10:56:03;1.4;1.3;1.1;0.8;;;;1.0;152.0;
78462;SPS30;67756;51.982;5.648;2023-05-16T10:58:42;1.5;1.4;1.2;0.8;;;;1.0;154.0;
78462;SPS30;67756;51.982;5.648;2023-05-16T11:01:25;1.7;1.6;1.3;0.9;;;;1.0;156.0;
78462;SPS30;67756;51.982;5.648;2023-05-16T11:04:08;1.3;1.2;1.0;0.7;;;;1.0;128.0;
78462;SPS30;67756;51.982;5.648;2023-05-16T11:06:48;1.8;1.7;1.3;0.9;;;;1.0;132.0;
78462;SPS30;67756;51.982;5.648;2023-05-16T11:09:20;1.7;1.6;1.3;0.9;;;;1.0;133.0;
78462;SPS30;67756;51.982;5.648;2023-05-16T11:11:56;1.6;1.4;1.2;0.8;;;;1.0;136.0;
78462;SPS30;67756;51.982;5.648;2023-05-16T11:14:28;2.6;2.3;1.9;1.2;;;;1.0;139.0;
78462;SPS30;67756;51.982;5.648;2023-05-16T11:17:09;1.2;1.1;0.9;0.6;;;;1.0;158.0;
78462;SPS30;67756;51.982;5.648;2023-05-16T11:19:40;1.9;1.8;1.4;0.9;;;;1.0;157.0;
78462;SPS30;67756;51.982;5.648;2023-05-16T11:22:12;1.8;1.6;1.3;0.8;;;;1.0;152.0;
78462;SPS30;67756;51.982;5.648;2023-05-16T11:24:50;1.9;1.7;1.4;0.9;;;;1.0;168.0;
78462;SPS30;67756;51.982;5.648;2023-05-16T11:27:21;1.5;1.4;1.1;0.8;;;;1.0;171.0;
78462;SPS30;67756;51.982;5.648;2023-05-16T11:29:52;1.9;1.7;1.4;1.0;;;;1.0;168.0;
78462;SPS30;67756;51.982;5.648;2023-05-16T11:32:21;2.1;2.0;1.6;1.1;;;;1.0;164.0;
78462;SPS30;67756;51.982;5.648;2023-05-16T11:34:50;1.9;1.7;1.4;1.0;;;;1.0;149.0;
78462;SPS30;67756;51.982;5.648;2023-05-16T11:37:20;2.1;1.9;1.6;1.1;;;;1.0;136.0;
78462;SPS30;67756;51.982;5.648;2023-05-16T11:39:48;1.8;1.7;1.4;1.0;;;;1.0;141.0;
78462;SPS30;67756;51.982;5.648;2023-05-16T11:42:17;1.8;1.6;1.4;1.0;;;;1.0;167.0;
78462;SPS30;67756;51.982;5.648;2023-05-16T11:44:46;1.6;1.5;1.3;1.0;;;;1.0;167.0;
78462;SPS30;67756;51.982;5.648;2023-05-16T11:47:14;1.4;1.3;1.2;0.9;;;;1.0;163.0;
78462;SPS30;67756;51.982;5.648;2023-05-16T11:49:44;2.0;1.9;1.6;1.2;;;;1.0;182.0;
78462;SPS30;67756;51.982;5.648;2023-05-16T11:52:14;2.0;1.8;1.6;1.2;;;;1.0;176.0;
78462;SPS30;67756;51.982;5.648;2023-05-16T11:54:46;2.2;2.1;1.8;1.3;;;;1.0;179.0;
78462;SPS30;67756;51.982;5.648;2023-05-16T11:57:16;1.6;1.5;1.3;1.0;;;;1.0;177.0;
78462;SPS30;67756;51.982;5.648;2023-05-16T11:59:44;1.8;1.7;1.4;1.0;;;;1.0;173.0;
78462;SPS30;67756;51.982;5.648;2023-05-16T12:02:13;2.2;2.0;1.7;1.2;;;;1.0;151.0;
78462;SPS30;67756;51.982;5.648;2023-05-16T12:04:42;1.5;1.4;1.1;0.8;;;;1.0;150.0;
78462;SPS30;67756;51.982;5.648;2023-05-16T12:07:15;1.8;1.7;1.4;1.0;;;;1.0;120.0;
78462;SPS30;67756;51.982;5.648;2023-05-16T12:09:52;1.5;1.4;1.1;0.7;;;;1.0;109.0;
78462;SPS30;67756;51.982;5.648;2023-05-16T12:12:21;1.8;1.7;1.3;0.9;;;;1.0;108.0;
78462;SPS30;67756;51.982;5.648;2023-05-16T12:14:50;1.6;1.5;1.2;0.8;;;;1.0;114.0;
78462;SPS30;67756;51.982;5.648;2023-05-16T12:17:18;1.6;1.5;1.2;0.8;;;;1.0;118.0;
78462;SPS30;67756;51.982;5.648;2023-05-16T12:19:47;2.0;1.8;1.4;1.0;;;;1.0;106.0;
78462;SPS30;67756;51.982;5.648;2023-05-16T12:22:16;1.3;1.2;1.0;0.7;;;;1.0;113.0;